Time,TemperatureF,DewpointF,PressureIn,WindDirection,WindDirectionDegrees,WindSpeedMPH,WindSpeedGustMPH,Humidity,HourlyPrecipIn,Conditions,Clouds,dailyrainin,SoftwareType,DateUTC
2014-12-17 00:01:00,34.4,32.6,29.83,East,79,1.2,1.2,93,0.00,CLR,FEW,0.00,WeatherDisplay:10.37,2014-12-17 05:01:00,
2014-12-17 00:06:00,34.4,32.6,29.83,ENE,63,2.3,2.3,93,0.00,CLR,FEW,0.00,WeatherDisplay:10.37,2014-12-17 05:06:00,
2014-12-17 00:11:00,34.4,32.6,29.83,East,96,0.0,0.0,93,0.00,CLR,FEW,0.00,WeatherDisplay:10.37,2014-12-17 05:11:00,
2014-12-17 00:16:00,34.3,32.5,29.83,ENE,77,1.2,1.2,93,0.00,CLR,FEW,0.00,WeatherDisplay:10.37,2014-12-17 05:16:00,
2014-12-17 00:21:00,34.3,32.8,29.82,ENE,65,2.3,2.3,94,0.00,CLR,FEW,0.00,WeatherDisplay:10.37,2014-12-17 05:21:00,
2014-12-17 00:26:00,34.3,32.8,29.82,NE,53,3.5,3.5,94,0.00,CLR,FEW,0.00,WeatherDisplay:10.37,2014-12-17 05:26:00,
2014-12-17 00:31:00,34.3,32.8,29.82,ENE,61,3.5,3.5,94,0.00,CLR,FEW,0.00,WeatherDisplay:10.37,2014-12-17 05:31:00,
2014-12-17 00:36:00,34.3,32.8,29.82,ENE,63,2.3,2.3,94,0.00,CLR,FEW,0.00,WeatherDisplay:10.37,2014-12-17 05:36:00,
2014-12-17 00:41:00,34.3,32.8,29.82,ENE,61,3.5,3.5,94,0.00,CLR,FEW,0.00,WeatherDisplay:10.37,2014-12-17 05:41:00,
2014-12-17 00:46:00,34.3,32.8,29.81,East,82,2.3,2.3,94,0.00,CLR,FEW,0.00,WeatherDisplay:10.37,2014-12-17 05:46:00,
2014-12-17 00:51:00,34.2,32.7,29.81,East,83,2.3,2.3,94,0.00,CLR,FEW,0.00,WeatherDisplay:10.37,2014-12-17 05:51:00,
2014-12-17 00:56:00,34.2,32.7,29.81,ENE,73,2.3,2.3,94,0.00,CLR,FEW,0.00,WeatherDisplay:10.37,2014-12-17 05:56:00,
2014-12-17 01:01:00,34.2,32.7,29.82,ENE,73,0.0,0.0,94,0.00,CLR,FEW,0.00,WeatherDisplay:10.37,2014-12-17 06:01:00,
2014-12-17 01:06:00,34.1,32.6,29.82,ENE,72,1.2,1.2,94,0.00,CLR,FEW,0.00,WeatherDisplay:10.37,2014-12-17 06:06:00,
2014-12-17 01:11:00,34.2,32.7,29.82,ENE,72,0.0,0.0,94,0.00,CLR,FEW,0.00,WeatherDisplay:10.37,2014-12-17 06:11:00,
2014-12-17 01:16:00,34.1,32.6,29.82,ENE,70,1.2,1.2,94,0.00,CLR,FEW,0.00,WeatherDisplay:10.37,2014-12-17 06:16:00,
2014-12-17 01:21:00,33.6,32.1,29.82,ENE,69,0.0,0.0,94,0.00,CLR,FEW,0.00,WeatherDisplay:10.37,2014-12-17 06:21:00,
2014-12-17 01:26:00,33.6,32.1,29.82,ENE,69,0.0,0.0,94,0.00,CLR,FEW,0.00,WeatherDisplay:10.37,2014-12-17 06:26:00,
2014-12-17 01:31:00,33.6,32.1,29.81,North,3,0.0,0.0,94,0.00,CLR,FEW,0.00,WeatherDisplay:10.37,2014-12-17 06:31:00,
2014-12-17 01:36:00,33.6,32.1,29.81,North,0,0.0,0.0,94,0.00,CLR,FEW,0.00,WeatherDisplay:10.37,2014-12-17 06:36:00,
2014-12-17 01:41:00,33.6,32.1,29.82,North,0,0.0,0.0,94,0.00,CLR,FEW,0.00,WeatherDisplay:10.37,2014-12-17 06:41:00,
2014-12-17 01:46:00,33.6,32.1,29.81,North,0,0.0,0.0,94,0.00,CLR,FEW,0.00,WeatherDisplay:10.37,2014-12-17 06:46:00,
2014-12-17 01:51:00,33.6,32.1,29.81,North,0,0.0,0.0,94,0.00,CLR,FEW,0.00,WeatherDisplay:10.37,2014-12-17 06:51:00,
2014-12-17 01:56:00,33.6,32.1,29.81,North,0,0.0,0.0,94,0.00,CLR,FEW,0.00,WeatherDisplay:10.37,2014-12-17 06:56:00,
2014-12-17 02:01:00,33.6,32.1,29.81,North,0,0.0,0.0,94,0.00,CLR,FEW,0.00,WeatherDisplay:10.37,2014-12-17 07:01:00,
2014-12-17 02:06:00,33.6,32.1,29.81,North,0,0.0,0.0,94,0.00,CLR,FEW,0.00,WeatherDisplay:10.37,2014-12-17 07:06:00,
2014-12-17 02:11:00,33.6,32.1,29.81,North,0,0.0,0.0,94,0.00,CLR,FEW,0.00,WeatherDisplay:10.37,2014-12-17 07:11:00,
2014-12-17 02:16:00,33.6,32.1,29.81,North,0,0.0,0.0,94,0.00,CLR,FEW,0.00,WeatherDisplay:10.37,2014-12-17 07:16:00,
2014-12-17 02:21:00,33.6,32.1,29.81,North,0,0.0,0.0,94,0.00,CLR,FEW,0.00,WeatherDisplay:10.37,2014-12-17 07:21:00,
2014-12-17 02:26:00,33.6,32.1,29.81,North,0,0.0,0.0,94,0.00,CLR,FEW,0.00,WeatherDisplay:10.37,2014-12-17 07:26:00,
2014-12-17 02:31:00,33.6,32.1,29.81,North,0,0.0,0.0,94,0.00,CLR,FEW,0.00,WeatherDisplay:10.37,2014-12-17 07:31:00,
2014-12-17 02:36:00,33.6,32.1,29.81,North,0,0.0,0.0,94,0.00,CLR,FEW,0.00,WeatherDisplay:10.37,2014-12-17 07:36:00,
2014-12-17 02:41:00,33.6,32.1,29.81,North,0,0.0,0.0,94,0.00,CLR,FEW,0.00,WeatherDisplay:10.37,2014-12-17 07:41:00,
2014-12-17 02:46:00,33.6,32.1,29.81,North,0,0.0,0.0,94,0.00,CLR,FEW,0.00,WeatherDisplay:10.37,2014-12-17 07:46:00,
2014-12-17 02:51:00,33.6,32.1,29.81,North,0,0.0,0.0,94,0.00,CLR,FEW,0.00,WeatherDisplay:10.37,2014-12-17 07:51:00,
2014-12-17 02:56:00,33.6,32.1,29.80,North,0,0.0,0.0,94,0.00,CLR,FEW,0.00,WeatherDisplay:10.37,2014-12-17 07:56:00,
2014-12-17 03:01:00,33.6,32.1,29.80,North,0,0.0,0.0,94,0.00,CLR,FEW,0.00,WeatherDisplay:10.37,2014-12-17 08:01:00,
2014-12-17 03:06:00,33.6,32.1,29.80,North,0,0.0,0.0,94,0.00,CLR,FEW,0.00,WeatherDisplay:10.37,2014-12-17 08:06:00,
2014-12-17 03:11:00,33.6,32.1,29.80,North,0,0.0,0.0,94,0.00,CLR,FEW,0.00,WeatherDisplay:10.37,2014-12-17 08:11:00,
2014-12-17 03:16:00,33.6,32.1,29.80,North,0,0.0,0.0,94,0.00,CLR,FEW,0.00,WeatherDisplay:10.37,2014-12-17 08:16:00,
2014-12-17 03:21:00,33.6,32.1,29.79,North,0,0.0,0.0,94,0.00,CLR,FEW,0.00,WeatherDisplay:10.37,2014-12-17 08:21:00,
2014-12-17 03:26:00,33.6,32.1,29.79,North,0,0.0,0.0,94,0.00,CLR,FEW,0.00,WeatherDisplay:10.37,2014-12-17 08:26:00,
2014-12-17 03:31:00,33.6,32.1,29.79,North,0,0.0,0.0,94,0.00,CLR,FEW,0.00,WeatherDisplay:10.37,2014-12-17 08:31:00,
2014-12-17 03:36:00,33.6,32.1,29.78,North,0,0.0,0.0,94,0.00,CLR,FEW,0.00,WeatherDisplay:10.37,2014-12-17 08:36:00,
2014-12-17 03:41:00,33.6,32.1,29.79,North,0,0.0,0.0,94,0.00,CLR,FEW,0.00,WeatherDisplay:10.37,2014-12-17 08:41:00,
2014-12-17 03:46:00,33.6,32.1,29.79,North,0,0.0,0.0,94,0.00,CLR,FEW,0.00,WeatherDisplay:10.37,2014-12-17 08:46:00,
2014-12-17 03:51:00,33.6,32.1,29.78,North,0,0.0,0.0,94,0.00,CLR,FEW,0.00,WeatherDisplay:10.37,2014-12-17 08:51:00,
2014-12-17 03:56:00,33.6,32.1,29.78,North,0,0.0,0.0,94,0.00,CLR,FEW,0.00,WeatherDisplay:10.37,2014-12-17 08:56:00,
2014-12-17 04:01:00,33.6,32.1,29.78,North,0,0.0,0.0,94,0.00,CLR,FEW,0.00,WeatherDisplay:10.37,2014-12-17 09:01:00,
2014-12-17 04:06:00,33.6,32.1,29.78,North,0,0.0,0.0,94,0.00,CLR,FEW,0.00,WeatherDisplay:10.37,2014-12-17 09:06:00,
2014-12-17 04:11:00,33.6,32.1,29.78,North,0,0.0,0.0,94,0.00,CLR,FEW,0.00,WeatherDisplay:10.37,2014-12-17 09:11:00,
2014-12-17 04:16:00,33.6,32.1,29.78,North,0,0.0,0.0,94,0.00,CLR,FEW,0.00,WeatherDisplay:10.37,2014-12-17 09:16:00,
2014-12-17 04:21:00,33.6,32.1,29.78,North,0,0.0,0.0,94,0.00,CLR,FEW,0.00,WeatherDisplay:10.37,2014-12-17 09:21:00,
2014-12-17 04:26:00,33.6,32.1,29.78,North,0,0.0,0.0,94,0.00,CLR,FEW,0.00,WeatherDisplay:10.37,2014-12-17 09:26:00,
2014-12-17 04:31:00,33.6,32.1,29.78,North,0,0.0,0.0,94,0.00,CLR,FEW,0.00,WeatherDisplay:10.37,2014-12-17 09:31:00,
2014-12-17 04:36:00,33.6,32.1,29.77,North,0,0.0,0.0,94,0.00,CLR,FEW,0.00,WeatherDisplay:10.37,2014-12-17 09:36:00,
2014-12-17 04:41:00,33.6,32.1,29.78,North,0,0.0,0.0,94,0.00,CLR,FEW,0.00,WeatherDisplay:10.37,2014-12-17 09:41:00,
2014-12-17 04:46:00,33.6,32.1,29.78,North,0,0.0,0.0,94,0.00,CLR,FEW,0.00,WeatherDisplay:10.37,2014-12-17 09:46:00,
2014-12-17 04:51:00,33.6,32.1,29.78,North,0,0.0,0.0,94,0.00,CLR,FEW,0.00,WeatherDisplay:10.37,2014-12-17 09:51:00,
2014-12-17 04:56:00,33.6,32.1,29.78,North,0,0.0,0.0,94,0.00,CLR,FEW,0.00,WeatherDisplay:10.37,2014-12-17 09:56:00,
2014-12-17 05:01:00,33.6,32.1,29.78,North,0,0.0,0.0,94,0.00,CLR,FEW,0.00,WeatherDisplay:10.37,2014-12-17 10:01:00,
2014-12-17 05:06:00,33.6,32.1,29.78,North,0,0.0,0.0,94,0.00,CLR,FEW,0.00,WeatherDisplay:10.37,2014-12-17 10:06:00,
2014-12-17 05:11:00,33.6,32.1,29.78,North,0,0.0,0.0,94,0.00,CLR,FEW,0.00,WeatherDisplay:10.37,2014-12-17 10:11:00,
2014-12-17 05:16:00,33.6,32.1,29.78,North,0,0.0,0.0,94,0.00,CLR,FEW,0.00,WeatherDisplay:10.37,2014-12-17 10:16:00,
2014-12-17 05:21:00,33.6,32.1,29.78,North,0,0.0,0.0,94,0.00,CLR,FEW,0.00,WeatherDisplay:10.37,2014-12-17 10:21:00,
2014-12-17 05:26:00,33.6,32.1,29.78,North,0,0.0,0.0,94,0.00,CLR,FEW,0.00,WeatherDisplay:10.37,2014-12-17 10:26:00,
2014-12-17 05:31:00,33.6,32.1,29.78,North,0,0.0,0.0,94,0.00,CLR,FEW,0.00,WeatherDisplay:10.37,2014-12-17 10:31:00,
2014-12-17 05:36:00,33.6,32.1,29.78,North,0,0.0,0.0,94,0.00,CLR,FEW,0.00,WeatherDisplay:10.37,2014-12-17 10:36:00,
2014-12-17 05:41:00,33.6,32.1,29.78,North,0,0.0,0.0,94,0.00,CLR,FEW,0.00,WeatherDisplay:10.37,2014-12-17 10:41:00,
2014-12-17 05:46:00,33.6,32.1,29.78,North,0,0.0,0.0,94,0.00,CLR,FEW,0.00,WeatherDisplay:10.37,2014-12-17 10:46:00,
2014-12-17 05:51:00,33.6,32.1,29.78,North,0,0.0,0.0,94,0.00,CLR,FEW,0.00,WeatherDisplay:10.37,2014-12-17 10:51:00,
2014-12-17 05:56:00,33.6,32.1,29.78,North,0,0.0,0.0,94,0.00,CLR,FEW,0.00,WeatherDisplay:10.37,2014-12-17 10:56:00,
2014-12-17 06:01:00,33.6,32.1,29.78,North,0,0.0,0.0,94,0.00,CLR,FEW,0.00,WeatherDisplay:10.37,2014-12-17 11:01:00,
2014-12-17 06:06:00,33.6,32.1,29.78,North,0,0.0,0.0,94,0.00,CLR,FEW,0.00,WeatherDisplay:10.37,2014-12-17 11:06:00,
2014-12-17 06:11:00,33.6,32.1,29.78,North,0,0.0,0.0,94,0.00,CLR,FEW,0.00,WeatherDisplay:10.37,2014-12-17 11:11:00,
2014-12-17 06:16:00,33.6,32.1,29.78,North,0,0.0,0.0,94,0.00,CLR,FEW,0.00,WeatherDisplay:10.37,2014-12-17 11:16:00,
2014-12-17 06:21:00,33.6,32.1,29.78,North,0,0.0,0.0,94,0.00,CLR,FEW,0.00,WeatherDisplay:10.37,2014-12-17 11:21:00,
2014-12-17 06:26:00,33.6,32.1,29.78,North,0,0.0,0.0,94,0.00,CLR,FEW,0.00,WeatherDisplay:10.37,2014-12-17 11:26:00,
2014-12-17 06:31:00,33.6,32.1,29.78,North,0,0.0,0.0,94,0.00,CLR,FEW,0.00,WeatherDisplay:10.37,2014-12-17 11:31:00,
2014-12-17 06:36:00,33.6,32.1,29.77,North,0,0.0,0.0,94,0.00,CLR,FEW,0.00,WeatherDisplay:10.37,2014-12-17 11:36:00,
2014-12-17 06:41:00,33.6,32.1,29.77,North,0,0.0,0.0,94,0.00,CLR,FEW,0.00,WeatherDisplay:10.37,2014-12-17 11:41:00,
2014-12-17 06:46:00,33.6,32.1,29.77,North,0,0.0,0.0,94,0.00,CLR,FEW,0.00,WeatherDisplay:10.37,2014-12-17 11:46:00,
2014-12-17 06:51:00,33.6,32.1,29.77,North,0,0.0,0.0,94,0.00,CLR,FEW,0.00,WeatherDisplay:10.37,2014-12-17 11:51:00,
2014-12-17 06:56:00,33.6,32.1,29.77,North,0,0.0,0.0,94,0.00,CLR,FEW,0.00,WeatherDisplay:10.37,2014-12-17 11:56:00,
2014-12-17 07:01:00,33.6,32.1,29.77,North,0,0.0,0.0,94,0.00,CLR,FEW,0.00,WeatherDisplay:10.37,2014-12-17 12:01:00,
2014-12-17 07:06:00,33.6,32.1,29.77,North,0,0.0,0.0,94,0.00,CLR,FEW,0.00,WeatherDisplay:10.37,2014-12-17 12:06:00,
2014-12-17 07:11:00,33.6,32.1,29.77,North,0,0.0,0.0,94,0.00,CLR,FEW,0.00,WeatherDisplay:10.37,2014-12-17 12:11:00,
2014-12-17 07:16:00,33.6,32.1,29.77,North,0,0.0,0.0,94,0.00,CLR,FEW,0.00,WeatherDisplay:10.37,2014-12-17 12:16:00,
2014-12-17 07:21:00,33.6,32.1,29.77,North,0,0.0,0.0,94,0.00,CLR,FEW,0.00,WeatherDisplay:10.37,2014-12-17 12:21:00,
2014-12-17 07:26:00,33.6,32.1,29.77,North,0,0.0,0.0,94,0.00,CLR,FEW,0.00,WeatherDisplay:10.37,2014-12-17 12:26:00,
2014-12-17 07:31:00,33.6,32.1,29.78,North,0,0.0,0.0,94,0.00,CLR,FEW,0.00,WeatherDisplay:10.37,2014-12-17 12:31:00,
2014-12-17 07:36:00,33.6,32.1,29.78,North,0,0.0,0.0,94,0.00,CLR,FEW,0.00,WeatherDisplay:10.37,2014-12-17 12:36:00,
2014-12-17 07:41:00,33.6,32.1,29.78,North,0,0.0,0.0,94,0.00,CLR,FEW,0.00,WeatherDisplay:10.37,2014-12-17 12:41:00,
2014-12-17 07:46:00,33.6,32.1,29.78,North,0,0.0,0.0,94,0.00,CLR,FEW,0.00,WeatherDisplay:10.37,2014-12-17 12:46:00,
2014-12-17 07:51:00,33.6,32.1,29.78,North,0,0.0,0.0,94,0.00,CLR,FEW,0.00,WeatherDisplay:10.37,2014-12-17 12:51:00,
2014-12-17 07:56:00,33.6,32.1,29.77,North,0,0.0,0.0,94,0.00,CLR,FEW,0.00,WeatherDisplay:10.37,2014-12-17 12:56:00,
2014-12-17 08:01:00,33.6,32.1,29.78,North,0,0.0,0.0,94,0.00,CLR,FEW,0.00,WeatherDisplay:10.37,2014-12-17 13:01:00,
2014-12-17 08:06:00,33.6,32.1,29.78,North,0,0.0,0.0,94,0.00,CLR,FEW,0.00,WeatherDisplay:10.37,2014-12-17 13:06:00,
2014-12-17 08:11:00,33.6,32.1,29.78,North,0,0.0,0.0,94,0.00,CLR,FEW,0.00,WeatherDisplay:10.37,2014-12-17 13:11:00,
2014-12-17 08:16:00,33.6,32.1,29.77,North,0,0.0,0.0,94,0.00,CLR,FEW,0.00,WeatherDisplay:10.37,2014-12-17 13:16:00,
2014-12-17 08:21:00,33.6,32.1,29.77,North,0,0.0,0.0,94,0.00,CLR,FEW,0.00,WeatherDisplay:10.37,2014-12-17 13:21:00,
2014-12-17 08:26:00,33.6,32.1,29.77,North,0,0.0,0.0,94,0.00,CLR,FEW,0.00,WeatherDisplay:10.37,2014-12-17 13:26:00,
2014-12-17 08:31:00,33.7,32.7,29.77,NE,35,0.0,0.0,96,0.00,CLR,FEW,0.00,WeatherDisplay:10.37,2014-12-17 13:31:00,
2014-12-17 08:36:00,33.8,32.8,29.77,NE,37,0.0,0.0,96,0.00,CLR,FEW,0.00,WeatherDisplay:10.37,2014-12-17 13:36:00,
2014-12-17 08:41:00,33.9,32.9,29.77,NE,40,1.2,1.2,96,0.00,CLR,FEW,0.00,WeatherDisplay:10.37,2014-12-17 13:41:00,
2014-12-17 08:46:00,33.9,32.9,29.78,NNE,16,0.0,0.0,96,0.00,CLR,FEW,0.00,WeatherDisplay:10.37,2014-12-17 13:46:00,
2014-12-17 08:51:00,33.9,32.9,29.77,NNE,23,1.2,1.2,96,0.00,CLR,FEW,0.00,WeatherDisplay:10.37,2014-12-17 13:51:00,
2014-12-17 08:56:00,33.9,32.9,29.78,NE,37,2.3,2.3,96,0.00,CLR,FEW,0.00,WeatherDisplay:10.37,2014-12-17 13:56:00,
2014-12-17 09:01:00,33.9,32.9,29.78,NE,40,1.2,0.0,96,0.00,CLR,FEW,0.00,WeatherDisplay:10.37,2014-12-17 14:01:00,
2014-12-17 09:06:00,33.9,32.9,29.78,NE,52,1.2,1.2,96,0.00,CLR,FEW,0.00,WeatherDisplay:10.37,2014-12-17 14:06:00,
2014-12-17 09:11:00,33.9,32.9,29.78,NE,51,1.2,1.2,96,0.00,CLR,FEW,0.00,WeatherDisplay:10.37,2014-12-17 14:11:00,
2014-12-17 09:16:00,33.9,32.9,29.78,NE,35,1.2,1.2,96,0.00,CLR,FEW,0.00,WeatherDisplay:10.37,2014-12-17 14:16:00,
2014-12-17 09:21:00,33.9,32.9,29.78,NNE,18,1.2,1.2,96,0.00,CLR,FEW,0.00,WeatherDisplay:10.37,2014-12-17 14:21:00,
2014-12-17 09:26:00,33.8,32.8,29.78,NE,42,3.5,3.5,96,0.00,CLR,FEW,0.00,WeatherDisplay:10.37,2014-12-17 14:26:00,
2014-12-17 09:31:00,33.7,32.7,29.78,ENE,58,2.3,2.3,96,0.00,CLR,FEW,0.00,WeatherDisplay:10.37,2014-12-17 14:31:00,
2014-12-17 09:36:00,33.7,32.7,29.77,NE,52,2.3,2.3,96,0.00,CLR,FEW,0.00,WeatherDisplay:10.37,2014-12-17 14:36:00,
2014-12-17 09:41:00,33.7,32.7,29.78,NE,54,2.3,2.3,96,0.00,CLR,FEW,0.00,WeatherDisplay:10.37,2014-12-17 14:41:00,
2014-12-17 09:46:00,33.7,32.7,29.77,NNE,19,2.3,2.3,96,0.00,CLR,FEW,0.00,WeatherDisplay:10.37,2014-12-17 14:46:00,
2014-12-17 09:51:00,33.7,32.7,29.77,NE,41,2.3,2.3,96,0.00,CLR,FEW,0.00,WeatherDisplay:10.37,2014-12-17 14:51:00,
2014-12-17 09:56:00,33.7,32.7,29.77,NE,35,2.3,2.3,96,0.00,CLR,FEW,0.00,WeatherDisplay:10.37,2014-12-17 14:56:00,
2014-12-17 10:01:00,33.8,32.8,29.77,North,358,2.3,2.3,96,0.00,CLR,FEW,0.00,WeatherDisplay:10.37,2014-12-17 15:01:00,
2014-12-17 10:06:00,33.9,32.9,29.77,NNE,23,1.2,0.0,96,0.00,CLR,FEW,0.00,WeatherDisplay:10.37,2014-12-17 15:06:00,
2014-12-17 10:11:00,33.9,32.9,29.77,NNE,30,1.2,1.2,96,0.00,CLR,FEW,0.00,WeatherDisplay:10.37,2014-12-17 15:11:00,
2014-12-17 10:16:00,33.9,32.9,29.77,NE,39,0.0,0.0,96,0.00,CLR,FEW,0.00,WeatherDisplay:10.37,2014-12-17 15:16:00,
2014-12-17 10:21:00,34.0,33.0,29.77,East,91,2.3,2.3,96,0.00,CLR,FEW,0.00,WeatherDisplay:10.37,2014-12-17 15:21:00,
2014-12-17 10:26:00,34.0,33.0,29.77,ENE,63,2.3,2.3,96,0.00,CLR,FEW,0.00,WeatherDisplay:10.37,2014-12-17 15:26:00,
2014-12-17 10:31:00,34.0,33.0,29.76,ENE,63,3.5,3.5,96,0.00,CLR,FEW,0.00,WeatherDisplay:10.37,2014-12-17 15:31:00,
2014-12-17 10:36:00,34.0,33.0,29.76,NE,36,2.3,2.3,96,0.00,CLR,FEW,0.00,WeatherDisplay:10.37,2014-12-17 15:36:00,
2014-12-17 10:41:00,34.0,33.0,29.76,ENE,73,1.2,0.0,96,0.00,CLR,FEW,0.00,WeatherDisplay:10.37,2014-12-17 15:41:00,
2014-12-17 10:46:00,34.0,33.2,29.76,ENE,60,1.2,1.2,97,0.00,CLR,FEW,0.00,WeatherDisplay:10.37,2014-12-17 15:46:00,
2014-12-17 10:51:00,34.0,33.0,29.76,NE,36,3.5,3.5,96,0.00,CLR,FEW,0.00,WeatherDisplay:10.37,2014-12-17 15:51:00,
2014-12-17 10:56:00,34.0,33.0,29.76,NW,321,2.3,2.3,96,0.00,CLR,FEW,0.00,WeatherDisplay:10.37,2014-12-17 15:56:00,
2014-12-17 11:01:00,33.9,33.1,29.76,NE,41,3.5,3.5,97,0.00,CLR,FEW,0.00,WeatherDisplay:10.37,2014-12-17 16:01:00,
2014-12-17 11:06:00,34.0,33.2,29.75,NE,44,1.2,1.6,97,0.00,CLR,FEW,0.00,WeatherDisplay:10.37,2014-12-17 16:06:00,
2014-12-17 11:11:00,34.0,33.2,29.75,NNE,33,3.5,3.5,97,0.00,CLR,FEW,0.00,WeatherDisplay:10.37,2014-12-17 16:11:00,
2014-12-17 11:16:00,34.0,33.2,29.75,NE,39,3.0,3.0,97,0.00,CLR,FEW,0.00,WeatherDisplay:10.37,2014-12-17 16:16:00,
2014-12-17 11:21:00,34.0,33.2,29.75,NNE,29,1.2,1.2,97,0.01,RA,FEW,0.01,WeatherDisplay:10.37,2014-12-17 16:21:00,
2014-12-17 11:26:00,34.0,33.2,29.75,ENE,70,1.2,0.0,97,0.01,RA,FEW,0.01,WeatherDisplay:10.37,2014-12-17 16:26:00,
2014-12-17 11:31:00,34.0,33.2,29.74,ENE,63,1.2,0.0,97,0.01,CLR,FEW,0.01,WeatherDisplay:10.37,2014-12-17 16:31:00,
2014-12-17 11:36:00,34.0,33.2,29.74,NNE,33,0.0,0.0,97,0.01,CLR,FEW,0.01,WeatherDisplay:10.37,2014-12-17 16:36:00,
2014-12-17 11:41:00,34.1,33.3,29.74,NE,47,1.2,0.0,97,0.01,CLR,FEW,0.01,WeatherDisplay:10.37,2014-12-17 16:41:00,
2014-12-17 11:46:00,34.1,33.3,29.74,North,353,2.3,2.3,97,0.02,RA,FEW,0.02,WeatherDisplay:10.37,2014-12-17 16:46:00,
2014-12-17 11:51:00,34.1,33.3,29.74,NNW,338,0.0,0.0,97,0.02,RA,FEW,0.02,WeatherDisplay:10.37,2014-12-17 16:51:00,
2014-12-17 11:56:00,34.1,33.3,29.74,NNE,33,3.5,3.5,97,0.02,,FEW,0.02,WeatherDisplay:10.37,2014-12-17 16:56:00,
2014-12-17 12:01:00,34.0,33.0,29.73,ENE,68,2.3,2.3,96,0.02,CLR,FEW,0.02,WeatherDisplay:10.37,2014-12-17 17:01:00,
2014-12-17 12:06:00,33.9,33.1,29.73,NE,49,3.5,3.5,97,0.02,CLR,FEW,0.02,WeatherDisplay:10.37,2014-12-17 17:06:00,
2014-12-17 12:11:00,34.0,33.2,29.73,East,79,2.3,2.3,97,0.02,CLR,FEW,0.02,WeatherDisplay:10.37,2014-12-17 17:11:00,
2014-12-17 12:16:00,34.0,33.2,29.73,NE,51,3.5,3.5,97,0.03,RA,FEW,0.03,WeatherDisplay:10.37,2014-12-17 17:16:00,
2014-12-17 12:21:00,34.1,33.3,29.73,NE,40,1.2,1.2,97,0.02,RA,FEW,0.03,WeatherDisplay:10.37,2014-12-17 17:21:00,
2014-12-17 12:26:00,34.1,33.3,29.72,NNW,333,3.5,3.5,97,0.02,,FEW,0.03,WeatherDisplay:10.37,2014-12-17 17:26:00,
2014-12-17 12:31:00,34.2,33.4,29.73,NE,44,2.3,2.3,97,0.02,CLR,FEW,0.03,WeatherDisplay:10.37,2014-12-17 17:31:00,
2014-12-17 12:36:00,34.2,33.4,29.72,NNE,32,2.0,2.0,97,0.02,CLR,FEW,0.03,WeatherDisplay:10.37,2014-12-17 17:36:00,
2014-12-17 12:41:00,34.3,33.5,29.72,ENE,70,1.2,1.2,97,0.03,RA,FEW,0.04,WeatherDisplay:10.37,2014-12-17 17:41:00,
2014-12-17 12:46:00,34.3,33.5,29.72,NNE,23,2.3,2.3,97,0.02,RA,FEW,0.04,WeatherDisplay:10.37,2014-12-17 17:46:00,
2014-12-17 12:51:00,34.3,33.5,29.72,NNW,342,1.2,1.2,97,0.02,,FEW,0.04,WeatherDisplay:10.37,2014-12-17 17:51:00,
2014-12-17 12:56:00,34.3,33.5,29.72,NNW,328,2.0,2.0,97,0.02,CLR,FEW,0.04,WeatherDisplay:10.37,2014-12-17 17:56:00,
2014-12-17 13:01:00,34.2,33.4,29.72,NNE,30,1.2,1.2,97,0.03,RA,FEW,0.05,WeatherDisplay:10.37,2014-12-17 18:01:00,
2014-12-17 13:06:00,34.1,33.3,29.72,North,354,2.0,2.0,97,0.03,RA,FEW,0.05,WeatherDisplay:10.37,2014-12-17 18:06:00,
2014-12-17 13:11:00,34.0,33.2,29.72,North,1,2.3,2.3,97,0.03,CLR,FEW,0.05,WeatherDisplay:10.37,2014-12-17 18:11:00,
2014-12-17 13:16:00,34.0,33.2,29.72,North,355,1.2,1.2,97,0.02,CLR,FEW,0.05,WeatherDisplay:10.37,2014-12-17 18:16:00,
2014-12-17 13:21:00,33.9,33.1,29.72,NNW,340,2.0,2.0,97,0.02,CLR,FEW,0.05,WeatherDisplay:10.37,2014-12-17 18:21:00,
2014-12-17 13:26:00,33.8,33.0,29.71,North,350,2.3,2.3,97,0.03,RA,FEW,0.06,WeatherDisplay:10.37,2014-12-17 18:26:00,
2014-12-17 13:31:00,33.8,33.0,29.71,NE,43,3.5,3.5,97,0.03,RA,FEW,0.06,WeatherDisplay:10.37,2014-12-17 18:31:00,
2014-12-17 13:36:00,33.8,33.0,29.71,NE,48,3.5,3.5,97,0.03,CLR,FEW,0.06,WeatherDisplay:10.37,2014-12-17 18:36:00,
2014-12-17 13:41:00,33.7,32.9,29.71,NE,36,4.6,4.6,97,0.02,CLR,FEW,0.06,WeatherDisplay:10.37,2014-12-17 18:41:00,
2014-12-17 13:46:00,33.7,32.9,29.71,North,354,2.3,2.3,97,0.02,CLR,FEW,0.06,WeatherDisplay:10.37,2014-12-17 18:46:00,
2014-12-17 13:51:00,33.7,32.9,29.71,North,358,3.5,3.5,97,0.03,RA,FEW,0.07,WeatherDisplay:10.37,2014-12-17 18:51:00,
2014-12-17 13:56:00,33.6,32.8,29.71,NE,41,4.0,4.0,97,0.03,RA,FEW,0.07,WeatherDisplay:10.37,2014-12-17 18:56:00,
2014-12-17 14:01:00,33.6,32.8,29.71,NNW,339,3.5,3.5,97,0.02,CLR,FEW,0.07,WeatherDisplay:10.37,2014-12-17 19:01:00,
2014-12-17 14:06:00,33.6,32.8,29.71,NNE,16,3.5,3.5,97,0.02,CLR,FEW,0.07,WeatherDisplay:10.37,2014-12-17 19:06:00,
2014-12-17 14:11:00,33.6,32.8,29.71,NE,36,2.3,2.3,97,0.02,CLR,FEW,0.07,WeatherDisplay:10.37,2014-12-17 19:11:00,
2014-12-17 14:16:00,33.5,32.7,29.72,North,350,3.5,3.5,97,0.02,CLR,FEW,0.07,WeatherDisplay:10.37,2014-12-17 19:16:00,
2014-12-17 14:21:00,33.5,32.7,29.72,NE,40,3.0,3.0,97,0.03,RA,FEW,0.08,WeatherDisplay:10.37,2014-12-17 19:21:00,
2014-12-17 14:26:00,33.4,32.6,29.72,NNE,15,3.5,3.5,97,0.02,RA,FEW,0.08,WeatherDisplay:10.37,2014-12-17 19:26:00,
2014-12-17 14:31:00,33.4,32.6,29.72,NNE,32,3.5,3.5,97,0.02,CLR,FEW,0.08,WeatherDisplay:10.37,2014-12-17 19:31:00,
2014-12-17 14:36:00,33.3,32.5,29.72,NE,43,3.5,3.5,97,0.02,CLR,FEW,0.08,WeatherDisplay:10.37,2014-12-17 19:36:00,
2014-12-17 14:41:00,33.3,32.5,29.72,NNW,330,4.6,4.6,97,0.02,CLR,FEW,0.08,WeatherDisplay:10.37,2014-12-17 19:41:00,
2014-12-17 14:46:00,33.2,32.4,29.72,NE,44,1.2,1.2,97,0.02,CLR,FEW,0.08,WeatherDisplay:10.37,2014-12-17 19:46:00,
2014-12-17 14:51:00,33.2,32.4,29.72,NNE,28,3.5,3.5,97,0.01,CLR,FEW,0.08,WeatherDisplay:10.37,2014-12-17 19:51:00,
2014-12-17 14:56:00,33.2,32.4,29.72,NE,39,1.2,1.2,97,0.01,CLR,FEW,0.08,WeatherDisplay:10.37,2014-12-17 19:56:00,
2014-12-17 15:01:00,33.2,32.4,29.72,NNW,339,3.5,0.0,97,0.01,CLR,FEW,0.08,WeatherDisplay:10.37,2014-12-17 20:01:00,
2014-12-17 15:06:00,33.2,32.4,29.72,NW,321,1.2,1.2,97,0.02,RA,FEW,0.09,WeatherDisplay:10.37,2014-12-17 20:06:00,
2014-12-17 15:11:00,33.1,32.3,29.72,North,11,1.2,1.2,97,0.02,RA,FEW,0.09,WeatherDisplay:10.37,2014-12-17 20:11:00,
2014-12-17 15:16:00,33.1,32.3,29.72,NE,34,1.2,1.2,97,0.02,CLR,FEW,0.09,WeatherDisplay:10.37,2014-12-17 20:16:00,
2014-12-17 15:21:00,33.1,32.3,29.72,NNW,338,1.2,1.2,97,0.01,CLR,FEW,0.09,WeatherDisplay:10.37,2014-12-17 20:21:00,
2014-12-17 15:26:00,33.1,32.3,29.72,NNE,28,3.5,3.5,97,0.01,CLR,FEW,0.09,WeatherDisplay:10.37,2014-12-17 20:26:00,
2014-12-17 15:31:00,33.1,32.3,29.72,NW,312,1.2,1.2,97,0.01,CLR,FEW,0.09,WeatherDisplay:10.37,2014-12-17 20:31:00,
2014-12-17 15:36:00,33.1,32.3,29.72,WNW,300,1.2,1.2,97,0.01,CLR,FEW,0.09,WeatherDisplay:10.37,2014-12-17 20:36:00,
2014-12-17 15:41:00,33.0,32.2,29.73,NW,321,3.5,3.5,97,0.01,CLR,FEW,0.09,WeatherDisplay:10.37,2014-12-17 20:41:00,
2014-12-17 15:46:00,32.9,32.1,29.73,North,359,1.0,1.1,97,0.01,CLR,FEW,0.09,WeatherDisplay:10.37,2014-12-17 20:46:00,
2014-12-17 15:51:00,32.9,32.1,29.73,NW,323,1.2,1.2,97,0.01,CLR,FEW,0.09,WeatherDisplay:10.37,2014-12-17 20:51:00,
2014-12-17 15:56:00,32.9,32.1,29.73,NNE,27,0.0,0.1,97,0.01,CLR,FEW,0.09,WeatherDisplay:10.37,2014-12-17 20:56:00,
2014-12-17 16:01:00,32.9,32.1,29.73,NW,304,1.2,1.2,97,0.01,CLR,FEW,0.09,WeatherDisplay:10.37,2014-12-17 21:01:00,
2014-12-17 16:06:00,32.8,32.0,29.73,NW,323,2.0,2.0,97,0.00,CLR,FEW,0.09,WeatherDisplay:10.37,2014-12-17 21:06:00,
2014-12-17 16:11:00,32.8,32.0,29.73,NNW,348,0.0,0.0,97,0.00,CLR,FEW,0.09,WeatherDisplay:10.37,2014-12-17 21:11:00,
2014-12-17 16:16:00,32.8,32.0,29.73,WNW,296,1.0,1.0,97,0.00,CLR,FEW,0.09,WeatherDisplay:10.37,2014-12-17 21:16:00,
2014-12-17 16:21:00,32.7,31.9,29.73,NW,315,1.2,1.2,97,0.00,CLR,FEW,0.09,WeatherDisplay:10.37,2014-12-17 21:21:00,
2014-12-17 16:26:00,32.6,31.8,29.73,North,353,2.3,2.3,97,0.00,CLR,FEW,0.09,WeatherDisplay:10.37,2014-12-17 21:26:00,
2014-12-17 16:31:00,32.5,31.7,29.73,WNW,290,2.3,2.3,97,0.00,CLR,FEW,0.09,WeatherDisplay:10.37,2014-12-17 21:31:00,
2014-12-17 16:36:00,32.5,31.7,29.73,NNW,335,1.2,0.0,97,0.00,CLR,FEW,0.09,WeatherDisplay:10.37,2014-12-17 21:36:00,
2014-12-17 16:41:00,32.4,31.6,29.73,WNW,292,1.2,1.2,97,0.00,CLR,FEW,0.09,WeatherDisplay:10.37,2014-12-17 21:41:00,
2014-12-17 16:46:00,32.4,31.6,29.73,West,281,3.5,3.5,97,0.00,CLR,FEW,0.09,WeatherDisplay:10.37,2014-12-17 21:46:00,
2014-12-17 16:51:00,32.4,31.6,29.73,WSW,255,2.3,2.3,97,0.00,CLR,FEW,0.09,WeatherDisplay:10.37,2014-12-17 21:51:00,
2014-12-17 16:56:00,32.4,31.6,29.74,NNE,13,0.0,0.0,97,0.00,CLR,FEW,0.09,WeatherDisplay:10.37,2014-12-17 21:56:00,
2014-12-17 17:01:00,32.4,31.6,29.74,NNE,12,0.0,0.0,97,0.00,CLR,FEW,0.09,WeatherDisplay:10.37,2014-12-17 22:01:00,
2014-12-17 17:06:00,32.4,31.6,29.73,NNW,336,1.2,1.2,97,0.00,CLR,FEW,0.09,WeatherDisplay:10.37,2014-12-17 22:06:00,
2014-12-17 17:11:00,32.4,31.6,29.74,NW,311,0.0,0.0,97,0.00,CLR,FEW,0.09,WeatherDisplay:10.37,2014-12-17 22:11:00,
2014-12-17 17:16:00,32.3,31.5,29.74,NW,311,0.0,0.0,97,0.00,CLR,FEW,0.09,WeatherDisplay:10.37,2014-12-17 22:16:00,
2014-12-17 17:21:00,32.3,31.5,29.74,NW,310,0.0,0.0,97,0.00,CLR,FEW,0.09,WeatherDisplay:10.37,2014-12-17 22:21:00,
2014-12-17 17:26:00,32.3,31.5,29.74,WNW,290,1.2,1.2,97,0.00,CLR,FEW,0.09,WeatherDisplay:10.37,2014-12-17 22:26:00,
2014-12-17 17:31:00,32.3,31.5,29.74,WNW,302,2.3,2.3,97,0.00,CLR,FEW,0.09,WeatherDisplay:10.37,2014-12-17 22:31:00,